Time;durP1;ratioP1;P1;durP2;ratioP2;P2;SDS_P1;SDS_P2;PMS_P1;PMS_P2;Temp;Humidity;BMP_temperature;BMP_pressure;BME280_temperature;BME280_humidity;BME280_pressure;Samples;Min_cycle;Max_cycle;Signal;HPM_P1;HPM_P2
2021/03/16 08:20:06;;;;;;;2.20;0.90;;;8.60;99.90;;;;;;4860617;29;20283;-65
2021/03/16 08:22:33;;;;;;;4.00;1.30;;;8.50;99.90;;;;;;4863104;29;20218;-65
2021/03/16 08:25:01;;;;;;;6.90;1.30;;;8.50;99.90;;;;;;4862847;29;20582;-65
2021/03/16 08:27:28;;;;;;;3.03;1.00;;;8.50;99.90;;;;;;4863398;29;20348;-66
2021/03/16 08:29:55;;;;;;;4.93;1.50;;;8.30;99.90;;;;;;4863334;29;20220;-66
2021/03/16 08:32:23;;;;;;;3.80;1.27;;;8.30;99.90;;;;;;4863420;29;20239;-66
2021/03/16 08:34:51;;;;;;;5.80;1.37;;;8.40;99.90;;;;;;4863444;29;20232;-66
2021/03/16 08:37:23;;;;;;;7.63;0.90;;;8.40;99.90;;;;;;4863407;29;20240;-66
2021/03/16 08:39:51;;;;;;;7.07;1.13;;;8.40;99.90;;;;;;4863383;29;20212;-66
2021/03/16 08:42:18;;;;;;;4.27;0.80;;;8.40;99.90;;;;;;4863118;29;20216;-66
2021/03/16 08:44:45;;;;;;;4.73;0.80;;;8.50;99.90;;;;;;4862929;29;20599;-66
2021/03/16 08:47:13;;;;;;;2.40;0.83;;;8.60;99.90;;;;;;4863237;29;20226;-66
2021/03/16 08:49:41;;;;;;;2.67;0.60;;;8.60;99.90;;;;;;4862745;29;20216;-66
2021/03/16 08:52:15;;;;;;;1.60;0.40;;;8.60;99.90;;;;;;4863129;29;20208;-66
2021/03/16 08:54:43;;;;;;;3.17;0.73;;;8.60;99.90;;;;;;4863031;29;20231;-66
2021/03/16 08:57:10;;;;;;;3.70;0.97;;;8.80;99.90;;;;;;4862718;29;20232;-66
2021/03/16 08:59:38;;;;;;;4.93;1.00;;;8.80;99.90;;;;;;4862908;29;20218;-66
2021/03/16 09:02:04;;;;;;;1.80;0.60;;;8.80;99.90;;;;;;4863059;29;20227;-66
2021/03/16 09:04:30;;;;;;;7.67;0.83;;;8.80;99.90;;;;;;4862459;29;20552;-66
2021/03/16 09:06:57;;;;;;;4.43;1.00;;;8.70;99.90;;;;;;4862809;29;20680;-66
2021/03/16 09:09:25;;;;;;;1.73;0.80;;;8.80;99.90;;;;;;4862820;29;20355;-66
2021/03/16 09:11:53;;;;;;;3.67;0.93;;;8.80;99.90;;;;;;4872068;29;20263;-65
2021/03/16 09:14:21;;;;;;;5.23;1.30;;;8.90;99.90;;;;;;4861877;29;20668;-66
2021/03/16 09:16:49;;;;;;;3.57;1.00;;;8.80;99.90;;;;;;4861958;29;20231;-66
2021/03/16 09:19:19;;;;;;;4.27;1.07;;;8.80;99.90;;;;;;4861648;29;20216;-66
2021/03/16 09:21:50;;;;;;;2.33;0.60;;;8.90;99.90;;;;;;4861822;29;20200;-65
2021/03/16 09:24:20;;;;;;;0.97;0.60;;;8.80;99.90;;;;;;4871729;29;20206;-65
2021/03/16 09:26:55;;;;;;;1.87;0.60;;;8.80;99.90;;;;;;4871555;29;20655;-65
2021/03/16 09:29:25;;;;;;;3.67;0.87;;;8.80;99.90;;;;;;4869008;29;20659;-65
2021/03/16 09:31:51;;;;;;;2.97;0.73;;;8.90;99.90;;;;;;4869920;29;20209;-65
2021/03/16 09:34:18;;;;;;;2.43;0.77;;;9.10;99.90;;;;;;4871570;29;20203;-65
2021/03/16 09:36:44;;;;;;;2.13;0.90;;;9.10;99.90;;;;;;4870902;29;20664;-65
2021/03/16 09:39:11;;;;;;;1.73;0.80;;;9.10;99.90;;;;;;4869701;29;20568;-66
2021/03/16 09:41:38;;;;;;;3.50;0.70;;;9.30;99.90;;;;;;4864436;29;20601;-68
2021/03/16 09:44:06;;;;;;;0.73;0.70;;;9.50;99.90;;;;;;4862008;29;20690;-66
2021/03/16 09:46:32;;;;;;;4.70;1.00;;;9.40;99.90;;;;;;4857420;29;21166;-68
2021/03/16 09:48:59;;;;;;;2.07;0.80;;;9.40;99.90;;;;;;4863363;29;20703;-68
2021/03/16 09:51:28;;;;;;;2.97;1.03;;;9.30;99.90;;;;;;4861647;29;20219;-68
2021/03/16 09:53:57;;;;;;;2.00;0.83;;;9.20;99.90;;;;;;4862064;29;20208;-68
2021/03/16 09:56:28;;;;;;;2.67;1.10;;;9.10;99.90;;;;;;4861476;29;20235;-69
2021/03/16 09:58:58;;;;;;;1.90;1.10;;;8.90;99.90;;;;;;4861200;29;20296;-68
2021/03/16 10:01:26;;;;;;;2.40;1.20;;;8.90;99.90;;;;;;4861708;29;20223;-68
2021/03/16 10:03:57;;;;;;;4.77;1.00;;;8.80;99.90;;;;;;4861270;29;20250;-68
2021/03/16 10:06:36;;;;;;;3.40;1.37;;;8.90;99.90;;;;;;4861285;29;20228;-67
2021/03/16 10:09:14;;;;;;;2.27;1.00;;;8.90;99.90;;;;;;4861070;29;20263;-68
2021/03/16 10:11:40;;;;;;;5.27;1.20;;;8.80;99.90;;;;;;4860668;29;20216;-69
2021/03/16 10:14:07;;;;;;;4.87;0.83;;;8.80;99.90;;;;;;4861778;29;20219;-68
2021/03/16 10:16:35;;;;;;;1.17;0.80;;;8.70;99.90;;;;;;4861408;29;20232;-69
2021/03/16 10:19:02;;;;;;;3.77;0.80;;;8.70;99.90;;;;;;4861258;29;20291;-69
2021/03/16 10:21:30;;;;;;;4.37;1.07;;;8.80;99.90;;;;;;4861474;29;20216;-69
2021/03/16 10:23:58;;;;;;;2.20;0.97;;;8.90;99.90;;;;;;4861520;29;20260;-69
2021/03/16 10:26:24;;;;;;;2.43;1.03;;;9.20;99.90;;;;;;4861111;29;20729;-69
2021/03/16 10:28:50;;;;;;;1.60;0.90;;;9.30;99.90;;;;;;4861330;29;20212;-68
2021/03/16 10:31:18;;;;;;;5.17;1.07;;;9.20;99.90;;;;;;4857924;29;20212;-73
2021/03/16 10:33:47;;;;;;;1.07;0.60;;;9.10;99.90;;;;;;4859405;29;20235;-70
2021/03/16 10:36:13;;;;;;;5.33;0.80;;;9.00;99.90;;;;;;4859006;29;20243;-72
2021/03/16 10:38:39;;;;;;;1.60;0.63;;;9.10;99.90;;;;;;4858881;29;20247;-72
2021/03/16 10:41:06;;;;;;;1.77;0.90;;;9.10;99.90;;;;;;4858659;29;20218;-70
2021/03/16 10:43:32;;;;;;;1.33;0.60;;;9.20;99.90;;;;;;4848672;29;20212;-73
2021/03/16 10:45:59;;;;;;;1.00;0.63;;;9.20;99.90;;;;;;4858825;29;20615;-72
2021/03/16 10:48:25;;;;;;;0.93;0.50;;;9.30;99.90;;;;;;4859236;29;20738;-68
2021/03/16 10:50:52;;;;;;;2.40;0.67;;;9.20;99.90;;;;;;4859942;29;20216;-70
2021/03/16 10:53:19;;;;;;;3.70;1.07;;;9.30;99.90;;;;;;4859892;29;20220;-72
2021/03/16 10:55:45;;;;;;;3.00;0.83;;;9.20;99.90;;;;;;4858960;29;20304;-74
2021/03/16 10:58:11;;;;;;;1.50;0.63;;;9.30;99.90;;;;;;4859306;29;20263;-73
2021/03/16 11:00:38;;;;;;;1.17;0.40;;;9.20;99.90;;;;;;4859544;29;20220;-72
2021/03/16 11:03:05;;;;;;;1.20;0.70;;;9.30;99.90;;;;;;4858500;29;20207;-72
2021/03/16 11:05:32;;;;;;;2.57;0.47;;;9.30;99.90;;;;;;4859537;29;20232;-72
2021/03/16 11:07:59;;;;;;;1.93;0.93;;;9.40;99.90;;;;;;4859326;29;20706;-71
2021/03/16 11:10:26;;;;;;;1.73;0.53;;;9.60;99.90;;;;;;4858700;29;20273;-72
2021/03/16 11:12:53;;;;;;;0.97;0.70;;;9.80;99.90;;;;;;4859968;29;20553;-67
2021/03/16 11:15:19;;;;;;;0.73;0.60;;;9.70;99.90;;;;;;4860750;29;20227;-71
2021/03/16 11:17:45;;;;;;;2.03;0.80;;;9.60;99.90;;;;;;4860386;29;20299;-70
2021/03/16 11:20:13;;;;;;;1.77;0.80;;;9.70;99.90;;;;;;4860429;29;20612;-68
2021/03/16 11:22:39;;;;;;;0.77;0.60;;;9.70;99.90;;;;;;4861986;29;20216;-69
2021/03/16 11:25:08;;;;;;;1.53;0.60;;;9.60;99.90;;;;;;4864034;29;20236;-66
2021/03/16 11:27:34;;;;;;;1.10;0.57;;;9.60;99.90;;;;;;4864335;29;20211;-67
2021/03/16 11:30:01;;;;;;;2.23;0.60;;;9.50;99.90;;;;;;4864525;29;20218;-67
2021/03/16 11:32:27;;;;;;;1.30;1.00;;;9.50;99.90;;;;;;4864298;29;20220;-67
2021/03/16 11:34:53;;;;;;;1.90;0.70;;;9.40;99.90;;;;;;4864085;29;20312;-67
2021/03/16 11:37:19;;;;;;;1.17;0.63;;;9.20;99.90;;;;;;4863580;29;20715;-68
2021/03/16 11:39:46;;;;;;;1.87;0.90;;;9.10;99.90;;;;;;4864051;29;20264;-67
2021/03/16 11:42:13;;;;;;;1.40;0.73;;;9.10;99.90;;;;;;4854434;29;20268;-67
2021/03/16 11:44:40;;;;;;;2.50;0.80;;;9.10;99.90;;;;;;4845594;29;20294;-67
2021/03/16 11:47:06;;;;;;;2.10;0.70;;;9.00;99.90;;;;;;4853080;29;20215;-68
2021/03/16 11:49:32;;;;;;;2.80;0.87;;;8.80;99.90;;;;;;4860426;29;20239;-66
2021/03/16 11:51:59;;;;;;;1.23;0.53;;;8.70;99.90;;;;;;4863876;29;20212;-66
2021/03/16 11:54:25;;;;;;;1.30;0.63;;;8.50;99.90;;;;;;4863615;29;20223;-66
2021/03/16 11:56:51;;;;;;;1.50;0.73;;;8.30;99.90;;;;;;4863013;29;20212;-66
2021/03/16 11:59:18;;;;;;;2.03;0.63;;;8.30;99.90;;;;;;4863820;29;20246;-66
2021/03/16 12:01:44;;;;;;;3.87;1.20;;;8.50;99.90;;;;;;4864311;29;20212;-66
2021/03/16 12:04:10;;;;;;;2.17;0.63;;;8.60;99.90;;;;;;4863368;29;20690;-66
2021/03/16 12:06:37;;;;;;;1.33;1.17;;;8.70;99.90;;;;;;4863791;29;20227;-66
2021/03/16 12:09:03;;;;;;;2.57;0.90;;;8.60;99.90;;;;;;4863717;29;20216;-66
2021/03/16 12:11:29;;;;;;;0.87;0.50;;;8.60;99.90;;;;;;4863975;29;20212;-66
2021/03/16 12:13:56;;;;;;;1.63;0.70;;;8.60;99.90;;;;;;4863920;29;20227;-66
2021/03/16 12:16:23;;;;;;;1.20;0.90;;;8.80;99.90;;;;;;4863208;29;20591;-66
2021/03/16 12:18:49;;;;;;;1.30;0.53;;;9.20;99.90;;;;;;4862789;29;20343;-66
2021/03/16 12:21:15;;;;;;;0.90;0.63;;;9.30;99.90;;;;;;4863379;29;20216;-66
2021/03/16 12:23:42;;;;;;;2.60;0.70;;;9.60;99.90;;;;;;4863526;29;20219;-66
2021/03/16 12:26:08;;;;;;;2.20;1.10;;;9.60;99.90;;;;;;4863316;29;20607;-66
2021/03/16 12:28:34;;;;;;;0.50;0.40;;;9.50;99.90;;;;;;4863414;29;20231;-66
2021/03/16 12:31:01;;;;;;;1.03;0.70;;;9.40;99.90;;;;;;4863245;29;20208;-66
2021/03/16 12:33:28;;;;;;;1.03;0.50;;;9.10;99.90;;;;;;4862100;29;20218;-66
2021/03/16 12:35:54;;;;;;;1.67;0.50;;;9.00;99.90;;;;;;4862704;29;20232;-66
2021/03/16 12:38:21;;;;;;;1.20;0.53;;;8.70;99.90;;;;;;4863254;29;20239;-66
2021/03/16 12:40:47;;;;;;;1.43;0.50;;;8.70;99.90;;;;;;4863115;29;20216;-66
2021/03/16 12:43:14;;;;;;;1.13;0.73;;;8.80;99.90;;;;;;4862852;29;20695;-66
2021/03/16 12:45:42;;;;;;;2.97;1.33;;;9.00;99.90;;;;;;4862806;29;20236;-66
2021/03/16 12:48:09;;;;;;;2.77;0.70;;;9.00;99.90;;;;;;4862536;29;20784;-66
2021/03/16 12:50:36;;;;;;;2.27;0.63;;;9.30;99.90;;;;;;4862715;29;20667;-66
2021/03/16 12:53:04;;;;;;;1.17;0.70;;;9.20;99.90;;;;;;4863165;29;20216;-66
2021/03/16 12:55:30;;;;;;;0.60;0.60;;;9.20;99.90;;;;;;4862862;29;20334;-66
2021/03/16 12:57:57;;;;;;;0.50;0.40;;;9.10;99.90;;;;;;4862153;29;20718;-66
2021/03/16 13:00:24;;;;;;;0.63;0.63;;;8.90;99.90;;;;;;4844551;29;20228;-66
2021/03/16 13:02:50;;;;;;;0.70;0.70;;;9.00;99.90;;;;;;4844575;29;20217;-66
2021/03/16 13:05:16;;;;;;;0.50;0.50;;;8.90;99.90;;;;;;4843959;29;20232;-66
2021/03/16 13:07:44;;;;;;;0.90;0.53;;;8.90;99.90;;;;;;4856259;29;20695;-66
2021/03/16 13:10:11;;;;;;;1.60;0.70;;;9.00;99.90;;;;;;4862899;29;20212;-68
2021/03/16 13:12:37;;;;;;;0.87;0.67;;;9.10;99.90;;;;;;4862301;29;20212;-67
2021/03/16 13:15:05;;;;;;;0.50;0.50;;;9.00;99.90;;;;;;4862385;29;20239;-67
2021/03/16 13:17:32;;;;;;;2.47;0.83;;;9.10;99.90;;;;;;4861908;29;20243;-67
2021/03/16 13:19:58;;;;;;;2.17;0.70;;;9.20;99.90;;;;;;4862109;29;20660;-67
2021/03/16 13:22:24;;;;;;;1.07;0.70;;;9.30;99.90;;;;;;4862587;29;20227;-71
2021/03/16 13:24:51;;;;;;;1.67;0.70;;;9.40;99.90;;;;;;4859523;29;20235;-70
2021/03/16 13:27:17;;;;;;;0.80;0.60;;;9.20;99.90;;;;;;4860474;29;20267;-70
2021/03/16 13:29:44;;;;;;;2.93;0.70;;;9.10;99.90;;;;;;4860934;29;20702;-72
2021/03/16 13:32:11;;;;;;;0.73;0.60;;;9.10;99.90;;;;;;4860522;29;20212;-72
2021/03/16 13:34:37;;;;;;;0.70;0.60;;;9.10;99.90;;;;;;4861478;29;20302;-68
2021/03/16 13:37:03;;;;;;;1.97;1.00;;;9.10;99.90;;;;;;4861851;29;20216;-67
2021/03/16 13:39:30;;;;;;;1.23;0.80;;;9.10;99.90;;;;;;4862260;29;20212;-66
2021/03/16 13:41:57;;;;;;;0.83;0.70;;;9.20;99.90;;;;;;4861433;29;20268;-68
2021/03/16 13:44:23;;;;;;;1.13;0.80;;;9.20;99.90;;;;;;4862421;29;20212;-68
2021/03/16 13:46:49;;;;;;;1.10;0.80;;;9.30;99.90;;;;;;4860965;29;20211;-68
2021/03/16 13:49:15;;;;;;;1.57;0.70;;;9.40;99.90;;;;;;4861889;29;20215;-66
2021/03/16 13:51:42;;;;;;;2.83;1.00;;;9.50;99.90;;;;;;4861584;29;20212;-67
2021/03/16 13:54:08;;;;;;;1.37;0.80;;;9.60;99.90;;;;;;4861973;29;20215;-68
2021/03/16 13:56:34;;;;;;;1.73;0.80;;;9.60;99.90;;;;;;4861568;29;20591;-69
2021/03/16 13:59:01;;;;;;;0.80;0.70;;;9.50;99.90;;;;;;4861881;29;20239;-69
2021/03/16 14:01:27;;;;;;;1.60;0.90;;;9.30;99.90;;;;;;4856933;29;20215;-70
2021/03/16 14:03:54;;;;;;;0.87;0.80;;;9.40;99.90;;;;;;4860501;29;20580;-74
2021/03/16 14:06:20;;;;;;;1.13;1.00;;;9.30;99.90;;;;;;4860192;29;20243;-74
2021/03/16 14:08:46;;;;;;;1.83;0.90;;;9.30;99.90;;;;;;4860182;29;20287;-74
2021/03/16 14:11:12;;;;;;;2.70;1.10;;;9.20;99.90;;;;;;4860713;29;20219;-68
2021/03/16 14:13:38;;;;;;;1.50;0.90;;;9.10;99.90;;;;;;4861262;29;20668;-71
2021/03/16 14:16:06;;;;;;;1.30;1.00;;;9.00;99.90;;;;;;4861766;29;20231;-69
2021/03/16 14:18:32;;;;;;;2.23;1.17;;;9.00;99.90;;;;;;4861100;29;20291;-69
2021/03/16 14:20:58;;;;;;;1.27;0.97;;;8.80;99.90;;;;;;4861445;29;20244;-69
2021/03/16 14:23:24;;;;;;;2.10;1.20;;;8.70;99.90;;;;;;4861205;29;20572;-69
2021/03/16 14:25:51;;;;;;;1.63;1.07;;;8.60;99.90;;;;;;4861258;29;20236;-69
2021/03/16 14:28:17;;;;;;;2.53;1.20;;;8.80;99.90;;;;;;4860842;29;20267;-68
2021/03/16 14:30:44;;;;;;;1.13;1.00;;;8.90;99.90;;;;;;4861510;29;20277;-69
2021/03/16 14:33:11;;;;;;;1.87;1.27;;;9.10;99.90;;;;;;4861200;29;20239;-68
2021/03/16 14:35:38;;;;;;;3.83;1.40;;;9.10;99.90;;;;;;4861057;29;20228;-69
2021/03/16 14:38:04;;;;;;;1.70;1.37;;;9.10;99.90;;;;;;4860969;29;20246;-68
2021/03/16 14:40:30;;;;;;;2.07;1.40;;;9.10;99.90;;;;;;4861011;29;20222;-69
2021/03/16 14:42:56;;;;;;;2.33;1.77;;;8.80;99.90;;;;;;4860991;29;20261;-69
2021/03/16 14:45:25;;;;;;;4.30;1.60;;;8.70;99.90;;;;;;4860861;29;20236;-69
2021/03/16 14:47:51;;;;;;;2.47;1.47;;;8.50;99.90;;;;;;4860268;29;20575;-69
2021/03/16 14:50:18;;;;;;;2.90;1.57;;;8.50;99.90;;;;;;4860617;29;20220;-69
2021/03/16 14:52:45;;;;;;;2.93;1.80;;;8.50;99.90;;;;;;4860892;29;20216;-69
2021/03/16 14:55:11;;;;;;;6.10;2.27;;;8.50;99.90;;;;;;4860660;29;20236;-69
2021/03/16 14:57:37;;;;;;;4.00;2.00;;;8.60;99.90;;;;;;4860295;29;20232;-69
2021/03/16 15:00:04;;;;;;;1.70;1.30;;;8.70;99.90;;;;;;4860969;29;20215;-67
2021/03/16 15:02:31;;;;;;;4.13;1.90;;;8.80;99.90;;;;;;4860737;29;20228;-73
2021/03/16 15:04:57;;;;;;;3.10;1.63;;;8.80;99.90;;;;;;4860214;29;20734;-67
2021/03/16 15:07:24;;;;;;;3.90;1.70;;;8.80;99.90;;;;;;4860672;29;20212;-67
2021/03/16 15:09:50;;;;;;;2.80;1.73;;;8.90;99.90;;;;;;4860879;29;20215;-68
2021/03/16 15:12:17;;;;;;;2.50;1.63;;;8.80;99.90;;;;;;4860861;29;20279;-68
2021/03/16 15:14:43;;;;;;;2.80;1.73;;;8.80;99.90;;;;;;4860611;29;20633;-68
2021/03/16 15:17:09;;;;;;;4.30;1.77;;;8.80;99.90;;;;;;4860512;29;20212;-68
2021/03/16 15:19:35;;;;;;;3.47;2.20;;;8.80;99.90;;;;;;4860153;29;20244;-68
2021/03/16 15:22:02;;;;;;;3.40;1.83;;;8.80;99.90;;;;;;4860413;29;20216;-68
2021/03/16 15:24:29;;;;;;;3.40;1.80;;;8.80;99.90;;;;;;4860567;29;20230;-68
2021/03/16 15:26:55;;;;;;;3.30;1.90;;;8.80;99.90;;;;;;4860191;29;20651;-68
2021/03/16 15:29:22;;;;;;;4.83;2.17;;;8.80;99.90;;;;;;4860620;29;20679;-68
2021/03/16 15:31:48;;;;;;;2.90;1.90;;;8.70;99.90;;;;;;4860552;29;20251;-68
2021/03/16 15:34:14;;;;;;;2.73;1.70;;;8.80;99.90;;;;;;4860304;29;20215;-68
2021/03/16 15:36:41;;;;;;;2.40;1.87;;;8.80;99.90;;;;;;4860443;29;20232;-68
2021/03/16 15:39:07;;;;;;;5.67;2.00;;;8.90;99.90;;;;;;4860013;29;20719;-68
2021/03/16 15:41:34;;;;;;;3.13;1.80;;;9.00;99.90;;;;;;4855461;29;20216;-68
2021/03/16 15:44:01;;;;;;;3.10;1.67;;;9.10;99.90;;;;;;4841931;29;20681;-69
2021/03/16 15:46:28;;;;;;;3.43;2.13;;;9.10;99.90;;;;;;4844588;29;20231;-68
2021/03/16 15:48:54;;;;;;;5.07;2.20;;;9.00;99.90;;;;;;4859741;29;20746;-69
2021/03/16 15:51:20;;;;;;;5.13;2.17;;;8.90;99.90;;;;;;4860002;29;20698;-69
2021/03/16 15:53:47;;;;;;;4.97;2.00;;;8.80;99.90;;;;;;4855982;29;20237;-67
2021/03/16 15:56:13;;;;;;;5.50;2.43;;;8.80;99.90;;;;;;4859453;29;20730;-67
2021/03/16 15:58:40;;;;;;;4.10;2.20;;;8.80;99.90;;;;;;4860205;29;20250;-68
2021/03/16 16:01:07;;;;;;;3.73;2.13;;;8.60;99.90;;;;;;4860015;29;20216;-67
2021/03/16 16:03:33;;;;;;;5.03;1.97;;;8.60;99.90;;;;;;4860197;29;20219;-68
2021/03/16 16:05:59;;;;;;;5.97;2.43;;;8.70;99.90;;;;;;4860007;29;20231;-68
2021/03/16 16:08:26;;;;;;;5.00;2.13;;;8.80;99.90;;;;;;4860320;29;20216;-67
2021/03/16 16:10:52;;;;;;;4.53;2.03;;;8.80;99.90;;;;;;4863973;29;20212;-68
2021/03/16 16:13:18;;;;;;;5.37;2.60;;;8.80;99.90;;;;;;4863764;29;20556;-67
2021/03/16 16:15:45;;;;;;;3.90;2.37;;;8.80;99.90;;;;;;4863376;29;20240;-68
2021/03/16 16:18:12;;;;;;;4.20;2.03;;;8.80;99.90;;;;;;4863154;29;20771;-67
2021/03/16 16:20:39;;;;;;;4.23;2.17;;;8.80;99.90;;;;;;4863686;29;20211;-67
2021/03/16 16:23:05;;;;;;;4.37;2.67;;;8.80;99.90;;;;;;4863631;29;20212;-68
2021/03/16 16:25:31;;;;;;;3.03;2.20;;;8.80;99.90;;;;;;4863300;29;20238;-67
2021/03/16 16:27:58;;;;;;;3.00;2.20;;;8.80;99.90;;;;;;4863530;29;20306;-68
2021/03/16 16:30:25;;;;;;;2.67;2.27;;;8.80;99.90;;;;;;4863236;29;20576;-67
2021/03/16 16:32:52;;;;;;;3.70;2.63;;;8.80;99.90;;;;;;4863026;29;20219;-67
2021/03/16 16:35:19;;;;;;;4.30;2.40;;;8.80;99.90;;;;;;4862839;29;20231;-67
2021/03/16 16:37:45;;;;;;;4.13;2.50;;;9.00;99.90;;;;;;4862791;29;20277;-68
2021/03/16 16:40:12;;;;;;;4.00;2.27;;;9.00;99.90;;;;;;4863273;29;20294;-69
2021/03/16 16:42:39;;;;;;;5.93;2.40;;;8.90;99.90;;;;;;4849826;29;20209;-68
2021/03/16 16:45:06;;;;;;;3.93;2.33;;;8.90;99.90;;;;;;4844310;29;20232;-68
2021/03/16 16:47:33;;;;;;;2.87;2.17;;;8.90;99.90;;;;;;4855179;29;20212;-69
2021/03/16 16:50:00;;;;;;;3.57;2.03;;;8.90;99.90;;;;;;4862435;29;20212;-69
2021/03/16 16:52:27;;;;;;;3.53;2.10;;;8.90;99.90;;;;;;4863123;29;20230;-69
2021/03/16 16:54:53;;;;;;;3.40;2.03;;;8.90;99.90;;;;;;4862660;29;20236;-69
2021/03/16 16:57:20;;;;;;;4.63;2.20;;;8.80;99.90;;;;;;4861852;29;20319;-69
2021/03/16 16:59:46;;;;;;;3.90;2.37;;;8.80;99.90;;;;;;4862094;29;20247;-68
2021/03/16 17:02:12;;;;;;;3.33;1.97;;;8.70;99.90;;;;;;4862223;29;20220;-68
2021/03/16 17:04:40;;;;;;;4.70;2.03;;;8.70;99.90;;;;;;4861927;29;20275;-68
2021/03/16 17:07:07;;;;;;;4.10;2.20;;;8.70;99.90;;;;;;4861970;29;20707;-68
2021/03/16 17:09:34;;;;;;;3.53;2.03;;;8.80;99.90;;;;;;4862451;29;20296;-68
2021/03/16 17:12:01;;;;;;;4.60;2.03;;;8.80;99.90;;;;;;4862343;29;20355;-68
2021/03/16 17:14:27;;;;;;;4.07;2.43;;;8.80;99.90;;;;;;4861929;29;20572;-68
2021/03/16 17:16:54;;;;;;;4.97;2.60;;;8.60;99.90;;;;;;4861827;29;20212;-68
2021/03/16 17:19:20;;;;;;;5.63;3.27;;;8.70;99.90;;;;;;4861854;29;20239;-68
2021/03/16 17:21:46;;;;;;;5.57;2.70;;;8.70;99.90;;;;;;4861673;29;20499;-67
2021/03/16 17:24:14;;;;;;;4.80;2.80;;;8.80;99.90;;;;;;4862222;29;20208;-68
2021/03/16 17:26:40;;;;;;;5.10;3.00;;;8.80;99.90;;;;;;4861882;29;20223;-68
2021/03/16 17:29:06;;;;;;;4.53;2.67;;;8.80;99.90;;;;;;4861797;29;20219;-68
2021/03/16 17:31:33;;;;;;;5.53;3.07;;;8.80;99.90;;;;;;4861828;29;20601;-68
2021/03/16 17:33:59;;;;;;;4.97;2.70;;;8.80;99.90;;;;;;4861784;29;20212;-68
2021/03/16 17:36:26;;;;;;;4.73;2.83;;;8.70;99.90;;;;;;4861568;29;20755;-67
2021/03/16 17:38:52;;;;;;;5.40;2.90;;;8.70;99.90;;;;;;4861430;29;20240;-67
2021/03/16 17:41:19;;;;;;;6.03;3.30;;;8.70;99.90;;;;;;4861490;29;20655;-67
2021/03/16 17:43:46;;;;;;;5.90;2.70;;;8.60;99.90;;;;;;4861649;29;20215;-68
2021/03/16 17:46:12;;;;;;;4.77;2.97;;;8.60;99.90;;;;;;4861431;29;20235;-67
2021/03/16 17:48:38;;;;;;;4.90;3.10;;;8.60;99.90;;;;;;4861236;29;20223;-68
2021/03/16 17:51:04;;;;;;;5.93;3.40;;;8.70;99.90;;;;;;4860801;29;20215;-68
2021/03/16 17:53:31;;;;;;;5.53;2.93;;;8.70;99.90;;;;;;4861753;29;20216;-68
2021/03/16 17:55:57;;;;;;;5.33;3.33;;;8.80;99.90;;;;;;4861194;29;20644;-68
2021/03/16 17:58:24;;;;;;;6.43;3.30;;;8.80;99.90;;;;;;4860297;29;20303;-68
2021/03/16 18:00:50;;;;;;;5.97;3.13;;;8.80;99.90;;;;;;4861207;29;20688;-68
2021/03/16 18:03:16;;;;;;;4.83;3.07;;;8.80;99.90;;;;;;4861391;29;20220;-68
2021/03/16 18:05:43;;;;;;;5.40;3.30;;;8.70;99.90;;;;;;4860989;29;20596;-68
2021/03/16 18:08:09;;;;;;;6.23;3.43;;;8.60;99.90;;;;;;4861155;29;20220;-68
2021/03/16 18:10:36;;;;;;;5.27;3.30;;;8.60;99.90;;;;;;4861024;29;20624;-68
2021/03/16 18:13:02;;;;;;;7.37;3.53;;;8.60;99.90;;;;;;4860659;29;20245;-67
2021/03/16 18:15:30;;;;;;;8.30;4.27;;;8.60;99.90;;;;;;4860715;29;20228;-68
2021/03/16 18:17:56;;;;;;;8.37;3.93;;;8.60;99.90;;;;;;4860716;29;20232;-66
2021/03/16 18:20:22;;;;;;;6.43;4.20;;;8.60;99.90;;;;;;4860634;29;20656;-67
2021/03/16 18:22:49;;;;;;;9.00;5.00;;;8.50;99.90;;;;;;4860837;29;20212;-67
2021/03/16 18:25:15;;;;;;;6.97;3.93;;;8.40;99.90;;;;;;4860365;29;20247;-67
2021/03/16 18:27:41;;;;;;;9.37;4.67;;;8.40;99.90;;;;;;4860400;29;20220;-67
2021/03/16 18:30:09;;;;;;;7.50;4.37;;;8.40;99.90;;;;;;4860689;29;20211;-68
2021/03/16 18:32:36;;;;;;;8.60;4.10;;;8.40;99.90;;;;;;4860435;29;20220;-68
2021/03/16 18:35:03;;;;;;;8.13;4.47;;;8.40;99.90;;;;;;4860648;29;20228;-67
2021/03/16 18:37:29;;;;;;;9.10;4.43;;;8.50;99.90;;;;;;4860561;29;20327;-67
2021/03/16 18:39:56;;;;;;;6.60;3.90;;;8.50;99.90;;;;;;4860673;29;20247;-67
2021/03/16 18:42:22;;;;;;;9.77;4.67;;;8.50;99.90;;;;;;4860882;29;20215;-67
2021/03/16 18:44:48;;;;;;;9.13;4.33;;;8.60;99.90;;;;;;4860179;29;20571;-67
2021/03/16 18:47:14;;;;;;;7.37;4.70;;;8.60;99.90;;;;;;4860663;29;20272;-68
2021/03/16 18:49:42;;;;;;;8.37;4.60;;;8.60;99.90;;;;;;4860464;29;20216;-67
2021/03/16 18:52:08;;;;;;;8.83;4.93;;;8.50;99.90;;;;;;4860155;29;20207;-66
2021/03/16 18:54:35;;;;;;;8.83;5.63;;;8.50;99.90;;;;;;4860526;29;20208;-67
2021/03/16 18:57:01;;;;;;;7.37;4.23;;;8.60;99.90;;;;;;4860051;29;20268;-67
2021/03/16 18:59:27;;;;;;;8.37;5.03;;;8.60;99.90;;;;;;4860481;29;20243;-68
2021/03/16 19:01:54;;;;;;;8.53;4.80;;;8.50;99.90;;;;;;4860588;29;20220;-67
2021/03/16 19:04:20;;;;;;;7.57;5.13;;;8.40;99.90;;;;;;4860098;29;20615;-67
2021/03/16 19:06:47;;;;;;;8.90;4.70;;;8.40;99.90;;;;;;4860298;29;20208;-67
2021/03/16 19:09:13;;;;;;;9.17;4.93;;;8.40;99.90;;;;;;4860597;29;20268;-67
2021/03/16 19:11:40;;;;;;;9.03;5.27;;;8.50;99.90;;;;;;4860028;29;20219;-67
2021/03/16 19:14:06;;;;;;;8.07;4.93;;;8.40;99.90;;;;;;4860450;29;20212;-67
2021/03/16 19:16:33;;;;;;;7.67;4.17;;;8.40;99.90;;;;;;4859889;29;20232;-68
2021/03/16 19:18:59;;;;;;;8.03;5.10;;;8.50;99.90;;;;;;4859251;29;20301;-67
2021/03/16 19:21:25;;;;;;;8.67;5.03;;;8.50;99.90;;;;;;4860013;29;20216;-68
2021/03/16 19:23:53;;;;;;;10.10;5.07;;;8.50;99.90;;;;;;4860147;29;20216;-68
2021/03/16 19:26:19;;;;;;;8.07;5.07;;;8.60;99.90;;;;;;4859124;29;20730;-67
2021/03/16 19:28:45;;;;;;;13.27;6.10;;;8.60;99.90;;;;;;4860228;29;20219;-68
2021/03/16 19:31:12;;;;;;;10.97;5.80;;;8.60;99.90;;;;;;4860318;29;20212;-67
2021/03/16 19:33:38;;;;;;;10.73;5.53;;;8.60;99.90;;;;;;4860045;29;20223;-67
2021/03/16 19:36:05;;;;;;;9.10;4.87;;;8.70;99.90;;;;;;4859911;29;20257;-68
2021/03/16 19:38:31;;;;;;;10.63;5.83;;;8.70;99.90;;;;;;4859720;29;20640;-68
2021/03/16 19:40:59;;;;;;;9.83;5.57;;;8.80;99.90;;;;;;4859306;29;20219;-66
2021/03/16 19:43:25;;;;;;;10.53;6.20;;;8.70;99.90;;;;;;4841921;29;20221;-67
2021/03/16 19:45:51;;;;;;;10.20;5.77;;;8.70;99.90;;;;;;4849208;29;20235;-67
2021/03/16 19:48:17;;;;;;;13.33;6.30;;;8.60;99.90;;;;;;4863651;29;20232;-66
2021/03/16 19:50:44;;;;;;;10.63;6.00;;;8.50;99.90;;;;;;4864020;29;20216;-67
2021/03/16 19:53:10;;;;;;;10.57;6.10;;;8.40;99.90;;;;;;4863306;29;20215;-66
2021/03/16 19:55:37;;;;;;;11.40;5.70;;;8.40;99.90;;;;;;4863413;29;20254;-66
2021/03/16 19:58:04;;;;;;;11.50;5.93;;;8.40;99.90;;;;;;4864258;29;20239;-66
2021/03/16 20:00:31;;;;;;;11.67;6.00;;;8.40;99.90;;;;;;4864179;29;20267;-66
2021/03/16 20:02:57;;;;;;;10.43;6.13;;;8.50;99.90;;;;;;4864027;29;20212;-65
2021/03/16 20:05:23;;;;;;;13.63;6.97;;;8.50;99.90;;;;;;4863957;29;20232;-66
2021/03/16 20:07:50;;;;;;;13.23;6.63;;;8.40;99.90;;;;;;4863711;29;20215;-66
2021/03/16 20:10:16;;;;;;;14.57;7.40;;;8.50;99.90;;;;;;4863913;29;20675;-65
2021/03/16 20:12:42;;;;;;;12.10;6.60;;;8.60;99.90;;;;;;4864068;29;20288;-65
2021/03/16 20:15:11;;;;;;;13.97;6.67;;;8.60;99.90;;;;;;4864555;29;20235;-67
2021/03/16 20:17:38;;;;;;;13.40;6.83;;;8.70;99.90;;;;;;4863772;29;20216;-66
2021/03/16 20:20:07;;;;;;;15.00;7.40;;;8.70;99.90;;;;;;4863466;29;20248;-66
2021/03/16 20:22:33;;;;;;;15.33;7.17;;;8.70;99.90;;;;;;4863502;29;20221;-66
2021/03/16 20:25:00;;;;;;;16.07;6.73;;;8.60;99.90;;;;;;4858514;29;20616;-66
2021/03/16 20:27:26;;;;;;;16.17;7.67;;;8.60;99.90;;;;;;4863485;29;20559;-66
2021/03/16 20:29:53;;;;;;;13.87;7.50;;;8.70;99.90;;;;;;4863616;29;20580;-66
2021/03/16 20:32:20;;;;;;;13.30;7.83;;;8.80;99.90;;;;;;4863393;29;20575;-66
2021/03/16 20:34:47;;;;;;;14.63;8.23;;;8.80;99.90;;;;;;4863123;29;20232;-66
2021/03/16 20:37:14;;;;;;;15.63;8.53;;;8.90;99.90;;;;;;4863337;29;20220;-68
2021/03/16 20:39:40;;;;;;;16.83;9.07;;;8.80;99.90;;;;;;4863310;29;20272;-66
2021/03/16 20:42:07;;;;;;;14.90;8.33;;;8.80;99.90;;;;;;4863530;29;20212;-66
2021/03/16 20:44:33;;;;;;;12.40;6.87;;;8.80;99.90;;;;;;4863106;29;20751;-66
2021/03/16 20:46:59;;;;;;;10.60;6.47;;;8.70;99.90;;;;;;4863235;29;20223;-66
2021/03/16 20:49:27;;;;;;;13.77;7.73;;;8.80;99.90;;;;;;4863107;29;20212;-66
2021/03/16 20:51:54;;;;;;;14.27;7.33;;;8.90;99.90;;;;;;4863126;29;20219;-66
2021/03/16 20:54:20;;;;;;;11.73;6.77;;;8.90;99.90;;;;;;4862725;29;20215;-66
2021/03/16 20:56:47;;;;;;;16.87;8.00;;;8.90;99.90;;;;;;4862954;29;20276;-66
2021/03/16 20:59:13;;;;;;;13.57;6.83;;;8.80;99.90;;;;;;4862881;29;20746;-66
2021/03/16 21:01:40;;;;;;;13.13;7.03;;;8.80;99.90;;;;;;4862945;29;20212;-66
2021/03/16 21:04:06;;;;;;;15.30;7.67;;;8.90;99.90;;;;;;4862910;29;20216;-66
2021/03/16 21:06:33;;;;;;;11.33;5.80;;;8.90;99.90;;;;;;4862821;29;20284;-66
2021/03/16 21:08:59;;;;;;;11.63;6.37;;;8.80;99.90;;;;;;4862763;29;20216;-66
2021/03/16 21:11:26;;;;;;;14.07;6.70;;;8.80;99.90;;;;;;4862977;29;20216;-66